createdAt,value
2018-05-14T00:02:05.360Z,46.00
2018-05-14T00:04:33.654Z,46.10
2018-05-14T00:07:01.969Z,46.10
2018-05-14T00:09:30.187Z,46.20
2018-05-14T00:11:58.435Z,46.00
2018-05-14T00:14:26.646Z,46.20
2018-05-14T00:16:54.908Z,46.10
2018-05-14T00:19:23.178Z,46.10
2018-05-14T00:21:51.394Z,46.20
2018-05-14T00:24:19.663Z,46.20
2018-05-14T00:26:47.908Z,46.30
2018-05-14T00:29:16.317Z,46.40
2018-05-14T00:31:44.722Z,46.50
2018-05-14T00:34:13.716Z,46.70
2018-05-14T00:36:42.747Z,46.90
2018-05-14T00:39:10.948Z,46.90
2018-05-14T00:41:39.210Z,46.90
2018-05-14T00:44:07.486Z,46.90
2018-05-14T00:46:35.761Z,46.90
2018-05-14T00:49:04.003Z,46.90
2018-05-14T00:51:32.243Z,46.90
2018-05-14T00:54:00.477Z,47.00
2018-05-14T00:56:28.733Z,47.20
2018-05-14T00:58:56.953Z,47.20
2018-05-14T01:01:25.209Z,47.10
2018-05-14T01:03:53.456Z,47.20
2018-05-14T01:06:21.697Z,47.20
2018-05-14T01:08:49.936Z,47.30
2018-05-14T01:11:18.172Z,47.30
2018-05-14T01:13:47.213Z,47.60
2018-05-14T01:16:15.457Z,47.50
2018-05-14T01:18:43.709Z,47.50
2018-05-14T01:21:11.929Z,47.80
2018-05-14T01:23:40.182Z,47.80
2018-05-14T01:26:09.167Z,48.00
2018-05-14T01:28:38.261Z,47.90
2018-05-14T01:31:07.250Z,48.00
2018-05-14T01:33:36.256Z,48.00
2018-05-14T01:36:05.269Z,48.10
2018-05-14T01:38:33.539Z,48.70
2018-05-14T01:41:01.753Z,48.10
2018-05-14T01:43:29.997Z,48.10
2018-05-14T01:45:58.236Z,48.00
2018-05-14T01:48:26.477Z,48.00
2018-05-14T01:50:54.694Z,48.00
2018-05-14T01:53:22.935Z,48.00
2018-05-14T01:55:51.178Z,48.10
2018-05-14T01:58:19.396Z,48.20
2018-05-14T02:00:47.632Z,48.20
2018-05-14T02:03:15.862Z,48.20
2018-05-14T02:05:44.105Z,48.30
2018-05-14T02:08:13.084Z,48.40
2018-05-14T02:10:41.316Z,48.40
2018-05-14T02:13:09.525Z,48.50
2018-05-14T02:15:37.796Z,48.60
2018-05-14T02:18:06.016Z,48.70
2018-05-14T02:20:34.236Z,48.70
2018-05-14T02:23:02.516Z,48.90
2018-05-14T02:25:31.501Z,49.20
2018-05-14T02:28:00.511Z,49.30
2018-05-14T02:30:28.763Z,49.30
2018-05-14T02:32:57.093Z,49.30
2018-05-14T02:35:25.307Z,49.50
2018-05-14T02:37:53.592Z,49.50
2018-05-14T02:40:22.587Z,49.60
2018-05-14T02:42:51.232Z,49.60
2018-05-14T02:45:19.501Z,49.70
2018-05-14T02:47:48.516Z,49.90
2018-05-14T02:50:16.773Z,49.90
2018-05-14T02:52:45.065Z,49.90
2018-05-14T02:55:14.101Z,50.40
2018-05-14T02:57:43.085Z,50.30
2018-05-14T03:00:11.323Z,50.30
2018-05-14T03:02:39.542Z,50.20
2018-05-14T03:05:07.790Z,50.30
2018-05-14T03:07:36.048Z,50.30
2018-05-14T03:10:04.305Z,50.40
2018-05-14T03:12:32.538Z,50.60
2018-05-14T03:15:01.550Z,50.60
2018-05-14T03:17:30.600Z,51.50
2018-05-14T03:19:58.849Z,50.80
2018-05-14T03:22:27.091Z,50.80
2018-05-14T03:24:55.333Z,50.90
2018-05-14T03:27:23.589Z,51.20
2018-05-14T03:29:51.853Z,51.30
2018-05-14T03:32:20.068Z,51.30
2018-05-14T03:34:48.459Z,51.30
2018-05-14T03:37:16.706Z,51.70
2018-05-14T03:39:44.976Z,51.70
2018-05-14T03:42:13.198Z,51.70
2018-05-14T03:44:42.385Z,52.30
2018-05-14T03:47:10.611Z,52.20
2018-05-14T03:49:38.897Z,52.30
2018-05-14T03:52:07.170Z,52.30
2018-05-14T03:54:35.412Z,52.70
2018-05-14T03:57:03.665Z,53.20
2018-05-14T03:59:43.932Z,53.60
2018-05-14T04:02:23.938Z,54.20
2018-05-14T04:05:03.893Z,53.50
2018-05-14T04:07:32.145Z,53.40
2018-05-14T04:10:00.431Z,53.30
2018-05-14T04:12:30.271Z,53.00
2018-05-14T04:14:58.514Z,53.10
2018-05-14T04:17:26.802Z,52.80
2018-05-14T04:19:55.183Z,52.70
2018-05-14T04:22:23.421Z,52.60
2018-05-14T04:24:52.641Z,52.80
2018-05-14T04:27:20.981Z,52.70
2018-05-14T04:29:50.346Z,52.50
2018-05-14T04:32:19.345Z,52.50
2018-05-14T04:34:48.186Z,52.40
2018-05-14T04:37:16.509Z,52.30
2018-05-14T04:39:44.750Z,52.60
2018-05-14T04:42:12.989Z,52.70
2018-05-14T04:44:41.266Z,52.70
2018-05-14T04:47:09.511Z,52.90
2018-05-14T04:49:37.721Z,52.90
2018-05-14T04:52:06.636Z,53.10
2018-05-14T04:54:34.936Z,53.00
2018-05-14T04:57:03.228Z,53.00
2018-05-14T04:59:31.444Z,53.10
2018-05-14T05:01:59.705Z,53.20
2018-05-14T05:04:27.977Z,53.20
2018-05-14T05:06:56.301Z,53.40
2018-05-14T05:09:25.287Z,53.60
2018-05-14T05:11:53.513Z,53.60
2018-05-14T05:14:21.747Z,53.60
2018-05-14T05:16:50.036Z,53.60
2018-05-14T05:19:18.327Z,53.70
2018-05-14T05:21:46.596Z,53.80
2018-05-14T05:24:14.837Z,53.80
2018-05-14T05:26:43.096Z,53.70
2018-05-14T05:29:11.327Z,53.80
2018-05-14T05:31:39.553Z,53.80
2018-05-14T05:34:07.776Z,53.70
2018-05-14T05:36:36.021Z,54.00
2018-05-14T05:39:05.024Z,53.80
2018-05-14T05:41:33.286Z,53.80
2018-05-14T05:44:02.289Z,53.70
2018-05-14T05:46:31.268Z,53.90
2018-05-14T05:48:59.512Z,53.90
2018-05-14T05:51:28.505Z,53.60
2018-05-14T05:53:56.739Z,53.60
2018-05-14T05:56:24.952Z,53.50
2018-05-14T05:58:53.228Z,53.80
2018-05-14T06:01:21.486Z,53.70
2018-05-14T06:03:50.420Z,53.50
2018-05-14T06:06:18.704Z,53.50
2018-05-14T06:08:46.927Z,53.40
2018-05-14T06:11:15.196Z,53.30
2018-05-14T06:13:43.532Z,53.30
2018-05-14T06:16:11.754Z,53.40
2018-05-14T06:18:40.084Z,53.20
2018-05-14T06:21:08.332Z,53.40
2018-05-14T06:23:36.589Z,53.50
2018-05-14T06:26:04.886Z,53.50
2018-05-14T06:28:33.205Z,53.20
2018-05-14T06:31:01.421Z,53.00
2018-05-14T06:33:29.659Z,52.80
2018-05-14T06:35:57.904Z,53.10
2018-05-14T06:38:26.143Z,53.00
2018-05-14T06:40:54.397Z,53.00
2018-05-14T06:43:23.408Z,52.30
2018-05-14T06:45:51.704Z,52.30
2018-05-14T06:48:19.949Z,52.70
2018-05-14T06:50:48.398Z,52.50
2018-05-14T06:53:16.634Z,52.50
2018-05-14T06:55:44.907Z,52.50
2018-05-14T06:58:13.232Z,52.90
2018-05-14T07:00:41.457Z,52.60
2018-05-14T07:03:09.737Z,52.60
2018-05-14T07:05:38.698Z,52.80
2018-05-14T07:08:07.004Z,52.70
2018-05-14T07:10:35.243Z,52.70
2018-05-14T07:13:03.488Z,52.90
2018-05-14T07:15:31.805Z,53.00
2018-05-14T07:18:00.108Z,53.10
2018-05-14T07:20:28.476Z,53.00
2018-05-14T07:22:56.743Z,52.60
2018-05-14T07:25:25.101Z,53.20
2018-05-14T07:27:53.363Z,53.30
2018-05-14T07:30:22.035Z,53.70
2018-05-14T07:32:50.290Z,53.60
2018-05-14T07:35:18.656Z,54.10
2018-05-14T07:37:46.867Z,53.40
2018-05-14T07:40:15.111Z,53.40
2018-05-14T07:42:44.278Z,53.20
2018-05-14T07:45:12.696Z,53.00
2018-05-14T07:47:40.956Z,52.30
2018-05-14T07:50:09.197Z,52.90
2018-05-14T07:52:37.505Z,53.10
2018-05-14T07:55:06.519Z,52.10
2018-05-14T07:57:34.790Z,52.10
2018-05-14T08:00:03.035Z,52.10
2018-05-14T08:02:31.378Z,52.00
2018-05-14T08:04:59.611Z,51.30
2018-05-14T08:07:27.890Z,51.00
2018-05-14T08:09:56.121Z,51.30
2018-05-14T08:12:24.364Z,51.70
2018-05-14T08:14:52.640Z,51.80
2018-05-14T08:17:20.883Z,51.80
2018-05-14T08:19:49.147Z,50.40
2018-05-14T08:22:18.145Z,50.10
2018-05-14T08:24:46.435Z,50.10
2018-05-14T08:27:14.713Z,49.70
2018-05-14T08:29:42.944Z,49.60
2018-05-14T08:32:11.377Z,49.10
2018-05-14T08:34:39.620Z,49.40
2018-05-14T08:37:08.672Z,47.60
2018-05-14T08:39:37.017Z,47.50
2018-05-14T08:42:05.476Z,47.50
2018-05-14T08:44:33.709Z,46.70
2018-05-14T08:47:02.020Z,46.40
2018-05-14T08:52:04.834Z,45.80
2018-05-14T08:54:33.974Z,44.70
2018-05-14T08:57:02.200Z,44.60
2018-05-14T08:59:31.219Z,44.90
2018-05-14T09:01:59.453Z,44.90
2018-05-14T09:04:27.719Z,43.90
2018-05-14T09:06:55.992Z,43.70
2018-05-14T09:09:24.243Z,43.00
2018-05-14T09:11:52.488Z,43.30
2018-05-14T09:14:21.536Z,43.20
2018-05-14T09:16:49.787Z,43.10
2018-05-14T09:19:18.054Z,43.30
2018-05-14T09:21:47.032Z,42.50
2018-05-14T09:24:15.274Z,42.50
2018-05-14T09:26:43.500Z,42.70
2018-05-14T09:29:11.763Z,43.00
2018-05-14T09:31:40.025Z,43.10
2018-05-14T09:34:09.074Z,43.40
2018-05-14T09:36:37.345Z,43.40
2018-05-14T09:39:05.661Z,43.40
2018-05-14T09:41:33.896Z,43.80
2018-05-14T09:44:02.222Z,43.80
2018-05-14T09:46:31.246Z,43.60
2018-05-14T09:48:59.476Z,43.40
2018-05-14T09:51:27.774Z,42.90
2018-05-14T09:53:56.002Z,43.10
2018-05-14T09:56:24.331Z,43.00
2018-05-14T09:58:52.557Z,43.40
2018-05-14T10:01:20.783Z,43.60
2018-05-14T10:03:49.032Z,43.60
2018-05-14T10:06:17.403Z,42.10
2018-05-14T10:08:45.659Z,42.70
2018-05-14T10:11:13.927Z,40.10
2018-05-14T10:13:42.192Z,38.20
2018-05-14T10:16:10.429Z,37.90
2018-05-14T10:18:38.716Z,37.80
2018-05-14T10:21:06.893Z,37.20
2018-05-14T10:23:35.155Z,36.20
2018-05-14T10:26:03.358Z,34.00
2018-05-14T10:28:32.399Z,32.40
2018-05-14T10:31:00.704Z,32.40
2018-05-14T10:33:28.952Z,32.70
2018-05-14T10:35:57.192Z,33.20
2018-05-14T10:38:25.519Z,32.80
2018-05-14T10:40:53.747Z,32.30
2018-05-14T10:43:22.018Z,31.90
2018-05-14T10:45:51.065Z,31.70
2018-05-14T10:48:19.285Z,31.70
2018-05-14T10:50:47.547Z,31.90
2018-05-14T10:53:16.586Z,33.00
2018-05-14T10:55:44.839Z,32.90
2018-05-14T10:58:13.050Z,33.30
2018-05-14T11:00:41.268Z,33.50
2018-05-14T11:03:10.269Z,33.30
2018-05-14T11:05:38.720Z,33.60
2018-05-14T11:08:06.975Z,33.30
2018-05-14T11:10:35.242Z,33.30
2018-05-14T11:13:03.443Z,32.80
2018-05-14T11:15:31.668Z,33.20
2018-05-14T11:18:00.084Z,32.70
2018-05-14T11:20:28.331Z,32.10
2018-05-14T11:22:56.572Z,31.90
2018-05-14T11:25:24.793Z,31.40
2018-05-14T11:27:53.221Z,31.50
2018-05-14T11:30:21.363Z,31.30
2018-05-14T11:32:49.666Z,31.10
2018-05-14T11:35:18.040Z,30.80
2018-05-14T11:37:46.191Z,31.00
2018-05-14T11:40:14.578Z,30.90
2018-05-14T11:42:42.893Z,30.70
2018-05-14T11:45:12.044Z,31.70
2018-05-14T11:47:40.279Z,31.60
2018-05-14T11:50:09.352Z,31.40
2018-05-14T11:52:37.606Z,31.40
2018-05-14T11:55:05.877Z,31.50
2018-05-14T11:57:34.120Z,31.90
2018-05-14T12:00:02.361Z,31.10
2018-05-14T12:02:30.625Z,30.20
2018-05-14T12:04:58.923Z,30.40
2018-05-14T12:07:27.906Z,30.10
2018-05-14T12:09:57.035Z,29.60
2018-05-14T12:12:25.245Z,29.90
2018-05-14T12:14:53.677Z,30.10
2018-05-14T12:17:22.731Z,30.00
2018-05-14T12:19:51.106Z,30.00
2018-05-14T12:22:20.361Z,29.60
2018-05-14T12:24:48.635Z,29.50
2018-05-14T12:27:17.069Z,29.60
2018-05-14T12:29:45.464Z,29.30
2018-05-14T12:32:13.878Z,29.80
2018-05-14T12:34:42.889Z,28.90
2018-05-14T12:37:11.188Z,28.90
2018-05-14T12:39:39.422Z,29.10
2018-05-14T12:42:07.688Z,29.50
2018-05-14T12:44:36.767Z,29.90
2018-05-14T12:47:04.988Z,29.90
2018-05-14T12:49:33.309Z,30.10
2018-05-14T12:52:01.692Z,30.20
2018-05-14T12:54:30.642Z,31.10
2018-05-14T12:56:58.864Z,30.40
2018-05-14T12:59:27.134Z,30.30
2018-05-14T13:01:55.341Z,30.00
2018-05-14T13:04:23.676Z,30.50
2018-05-14T13:06:52.000Z,30.80
2018-05-14T13:09:20.202Z,31.10
2018-05-14T13:11:48.665Z,31.00
2018-05-14T13:14:16.924Z,30.60
2018-05-14T13:16:45.931Z,30.00
2018-05-14T13:19:14.272Z,30.00
2018-05-14T13:21:42.520Z,30.00
2018-05-14T13:24:10.814Z,31.10
2018-05-14T13:26:39.061Z,30.30
2018-05-14T13:29:07.314Z,30.20
2018-05-14T13:31:35.553Z,30.70
2018-05-14T13:34:03.791Z,31.10
2018-05-14T13:36:32.013Z,31.50
2018-05-14T13:39:00.277Z,31.50
2018-05-14T13:41:28.529Z,32.10
2018-05-14T13:43:56.799Z,31.90
2018-05-14T13:46:25.037Z,31.30
2018-05-14T13:48:54.111Z,31.70
2018-05-14T13:51:22.634Z,31.60
2018-05-14T13:53:50.939Z,31.80
2018-05-14T13:56:19.188Z,32.10
2018-05-14T13:58:47.492Z,32.20
2018-05-14T14:01:15.777Z,31.30
2018-05-14T14:03:44.026Z,31.50
2018-05-14T14:06:12.292Z,31.50
2018-05-14T14:08:40.529Z,31.80
2018-05-14T14:11:08.776Z,31.50
2018-05-14T14:13:37.032Z,31.30
2018-05-14T14:16:05.331Z,30.90
2018-05-14T14:18:33.571Z,31.30
2018-05-14T14:21:01.803Z,30.90
2018-05-14T14:23:30.162Z,29.90
2018-05-14T14:25:58.316Z,30.00
2018-05-14T14:28:26.661Z,29.80
2018-05-14T14:30:54.859Z,29.70
2018-05-14T14:33:23.118Z,30.00
2018-05-14T14:35:51.459Z,29.70
2018-05-14T14:38:19.644Z,29.60
2018-05-14T14:40:47.865Z,29.70
2018-05-14T14:43:16.112Z,29.50
2018-05-14T14:45:44.398Z,29.60
2018-05-14T14:48:13.408Z,29.40
2018-05-14T14:50:41.668Z,29.40
2018-05-14T14:53:09.876Z,29.30
2018-05-14T14:55:38.146Z,29.70
2018-05-14T14:58:06.366Z,29.80
2018-05-14T15:00:34.595Z,29.90
2018-05-14T15:03:02.841Z,29.80
2018-05-14T15:05:31.085Z,30.10
2018-05-14T15:07:59.316Z,30.10
2018-05-14T15:10:27.579Z,30.40
2018-05-14T15:12:55.791Z,30.00
2018-05-14T15:15:24.007Z,30.00
2018-05-14T15:17:52.242Z,29.90
2018-05-14T15:20:20.483Z,29.80
2018-05-14T15:22:49.491Z,29.90
2018-05-14T15:25:17.745Z,29.90
2018-05-14T15:27:46.788Z,30.20
2018-05-14T15:30:15.013Z,30.20
2018-05-14T15:32:44.098Z,30.10
2018-05-14T15:35:12.377Z,30.10
2018-05-14T15:37:40.658Z,30.30
2018-05-14T15:40:09.668Z,31.20
2018-05-14T15:42:37.972Z,30.40
2018-05-14T15:45:06.221Z,30.50
2018-05-14T15:47:34.453Z,30.40
2018-05-14T15:50:02.782Z,30.40
2018-05-14T15:52:30.964Z,30.50
2018-05-14T15:54:59.206Z,30.10
2018-05-14T15:57:27.428Z,30.00
2018-05-14T15:59:55.677Z,29.70
2018-05-14T16:02:23.915Z,29.80
2018-05-14T16:04:52.166Z,30.00
2018-05-14T16:07:20.431Z,30.00
2018-05-14T16:09:48.672Z,30.30
2018-05-14T16:12:16.938Z,29.40
2018-05-14T16:14:45.182Z,29.10
2018-05-14T16:17:13.440Z,29.20
2018-05-14T16:19:42.026Z,29.40
2018-05-14T16:22:10.997Z,30.00
2018-05-14T16:24:39.212Z,30.00
2018-05-14T16:27:07.447Z,29.40
2018-05-14T16:29:35.671Z,29.20
2018-05-14T16:32:03.934Z,29.20
2018-05-14T16:34:32.155Z,29.50
2018-05-14T16:37:01.172Z,29.70
2018-05-14T16:39:29.405Z,29.60
2018-05-14T16:41:57.683Z,29.40
2018-05-14T16:44:25.867Z,29.60
2018-05-14T16:46:54.107Z,29.80
2018-05-14T16:49:22.345Z,30.20
2018-05-14T16:51:51.340Z,29.90
2018-05-14T16:54:19.561Z,29.90
2018-05-14T16:56:48.585Z,29.80
2018-05-14T16:59:16.875Z,29.80
2018-05-14T17:01:45.864Z,29.60
2018-05-14T17:04:15.002Z,29.60
2018-05-14T17:06:43.101Z,29.60
2018-05-14T17:09:11.344Z,29.60
2018-05-14T17:11:40.482Z,29.30
2018-05-14T17:14:08.707Z,29.10
2018-05-14T17:16:37.085Z,29.30
2018-05-14T17:19:05.319Z,29.20
2018-05-14T17:21:33.540Z,29.20
2018-05-14T17:24:01.834Z,29.40
2018-05-14T17:26:30.874Z,29.60
2018-05-14T17:28:59.778Z,29.70
2018-05-14T17:31:28.795Z,30.00
2018-05-14T17:33:57.033Z,30.00
2018-05-14T17:36:25.280Z,30.00
2018-05-14T17:38:53.516Z,30.00
2018-05-14T17:41:21.769Z,30.00
2018-05-14T17:43:50.036Z,29.80
2018-05-14T17:46:18.277Z,30.00
2018-05-14T17:48:47.295Z,30.30
2018-05-14T17:51:15.543Z,30.30
2018-05-14T17:53:43.797Z,30.50
2018-05-14T17:56:12.057Z,30.60
2018-05-14T17:58:41.061Z,30.00
2018-05-14T18:01:09.361Z,30.00
2018-05-14T18:03:37.585Z,30.00
2018-05-14T18:06:05.820Z,30.20
2018-05-14T18:08:34.119Z,30.50
2018-05-14T18:11:02.359Z,30.80
2018-05-14T18:13:30.559Z,30.80
2018-05-14T18:15:58.833Z,31.20
2018-05-14T18:18:27.061Z,31.20
2018-05-14T18:21:00.181Z,31.20
2018-05-14T18:23:28.486Z,31.20
2018-05-14T18:29:09.240Z,31.70
2018-05-14T18:31:43.208Z,32.00
2018-05-14T18:34:11.476Z,32.10
2018-05-14T18:36:39.735Z,32.50
2018-05-14T18:39:07.996Z,31.90
2018-05-14T18:41:36.194Z,31.90
2018-05-14T18:44:10.059Z,31.90
2018-05-14T18:46:38.387Z,32.20
2018-05-14T18:49:06.603Z,32.40
2018-05-14T18:51:38.661Z,32.60
2018-05-14T18:54:07.606Z,32.90
2018-05-14T18:56:37.762Z,33.00
2018-05-14T18:59:07.091Z,33.00
2018-05-14T19:01:35.968Z,33.10
2018-05-14T19:04:04.199Z,33.20
2018-05-14T19:06:36.688Z,33.30
2018-05-14T19:09:05.708Z,33.40
2018-05-14T19:11:50.078Z,33.50
2018-05-14T19:14:18.354Z,33.70
2018-05-14T19:19:27.078Z,33.90
2018-05-14T19:21:57.892Z,34.40
2018-05-14T19:24:26.839Z,34.40
2018-05-14T19:26:55.961Z,34.70
2018-05-14T19:29:30.913Z,34.90
2018-05-14T19:31:59.069Z,35.10
2018-05-14T19:34:33.429Z,35.10
2018-05-14T19:37:01.676Z,35.20
2018-05-14T19:39:36.423Z,35.20
2018-05-14T19:42:04.614Z,35.10
2018-05-14T19:44:33.671Z,35.00
2018-05-14T19:47:03.406Z,35.00
2018-05-14T19:49:34.094Z,35.20
2018-05-14T19:52:02.383Z,35.20
2018-05-14T19:54:30.589Z,35.20
2018-05-14T19:56:58.854Z,35.20
2018-05-14T19:59:27.140Z,35.30
2018-05-14T20:01:55.415Z,35.30
2018-05-14T20:04:23.673Z,35.40
2018-05-14T20:06:52.005Z,35.30
2018-05-14T20:09:20.279Z,35.40
2018-05-14T20:11:48.533Z,35.40
2018-05-14T20:14:16.771Z,35.60
2018-05-14T20:16:45.007Z,35.50
2018-05-14T20:19:13.248Z,35.40
2018-05-14T20:21:41.477Z,35.60
2018-05-14T20:24:09.754Z,35.60
2018-05-14T20:26:38.059Z,35.80
2018-05-14T20:29:06.813Z,35.90
2018-05-14T20:31:35.956Z,36.10
2018-05-14T20:34:04.280Z,36.70
2018-05-14T20:36:32.548Z,36.30
2018-05-14T20:39:00.788Z,36.40
2018-05-14T20:41:29.248Z,36.50
2018-05-14T20:43:57.683Z,36.80
2018-05-14T20:46:25.880Z,36.80
2018-05-14T20:48:54.081Z,36.80
2018-05-14T20:51:22.427Z,37.00
2018-05-14T20:53:50.724Z,36.90
2018-05-14T20:56:19.071Z,37.00
2018-05-14T20:58:47.361Z,37.00
2018-05-14T21:01:15.581Z,37.00
2018-05-14T21:03:43.841Z,37.10
2018-05-14T21:06:12.064Z,37.20
2018-05-14T21:08:41.077Z,37.40
2018-05-14T21:11:09.437Z,37.30
2018-05-14T21:13:38.427Z,37.60
2018-05-14T21:16:06.735Z,37.50
2018-05-14T21:18:35.008Z,37.70
2018-05-14T21:21:03.239Z,37.90
2018-05-14T21:23:31.639Z,38.00
2018-05-14T21:25:59.871Z,38.30
2018-05-14T21:28:28.186Z,38.40
2018-05-14T21:30:57.198Z,38.50
2018-05-14T21:33:25.480Z,38.40
2018-05-14T21:35:53.803Z,38.50
2018-05-14T21:38:22.063Z,38.90
2018-05-14T21:40:50.348Z,39.00
2018-05-14T21:43:18.567Z,38.90
2018-05-14T21:45:47.668Z,39.30
2018-05-14T21:48:15.896Z,39.30
2018-05-14T21:50:44.167Z,39.50
2018-05-14T21:53:12.413Z,39.70
2018-05-14T21:55:40.665Z,39.80
2018-05-14T21:58:09.777Z,40.00
2018-05-14T22:00:38.037Z,39.90
2018-05-14T22:03:07.051Z,40.10
2018-05-14T22:05:41.871Z,40.10
2018-05-14T22:08:10.912Z,40.60
2018-05-14T22:10:39.183Z,40.50
2018-05-14T22:13:07.495Z,40.50
2018-05-14T22:15:35.827Z,40.60
2018-05-14T22:18:04.071Z,40.70
2018-05-14T22:20:32.341Z,40.70
2018-05-14T22:23:01.435Z,41.00
2018-05-14T22:25:30.630Z,41.20
2018-05-14T22:27:58.887Z,41.20
2018-05-14T22:30:27.174Z,41.40
2018-05-14T22:32:55.473Z,41.70
2018-05-14T22:35:23.696Z,41.80
2018-05-14T22:37:52.008Z,41.80
2018-05-14T22:40:20.300Z,41.80
2018-05-14T22:42:49.579Z,42.00
2018-05-14T22:45:17.862Z,42.70
2018-05-14T22:47:46.126Z,42.20
2018-05-14T22:50:14.413Z,42.50
2018-05-14T22:52:43.520Z,43.70
2018-05-14T22:55:12.564Z,43.40
2018-05-14T22:57:40.887Z,43.40
2018-05-14T23:00:09.113Z,44.50
2018-05-14T23:02:37.965Z,45.50
2018-05-14T23:05:06.967Z,46.30
2018-05-14T23:07:35.972Z,46.30
2018-05-14T23:10:04.252Z,46.20
2018-05-14T23:12:32.575Z,46.30
2018-05-14T23:15:01.579Z,45.60
2018-05-14T23:17:29.897Z,45.50
2018-05-14T23:19:58.199Z,45.20
2018-05-14T23:22:38.237Z,45.20
2018-05-14T23:25:07.264Z,45.70
2018-05-14T23:27:35.544Z,45.60
2018-05-14T23:30:03.766Z,46.00
2018-05-14T23:32:32.862Z,46.20
2018-05-14T23:35:01.178Z,46.20
2018-05-14T23:37:29.479Z,47.00
2018-05-14T23:39:57.691Z,47.10
2018-05-14T23:42:26.741Z,47.10
2018-05-14T23:44:55.026Z,47.10
2018-05-14T23:47:24.154Z,47.10
2018-05-14T23:49:53.152Z,47.70
2018-05-14T23:52:21.581Z,47.60
2018-05-14T23:54:49.844Z,48.00
2018-05-14T23:57:18.084Z,48.30
2018-05-14T23:59:46.439Z,48.60
